This is the latest recevied weather packets stored in our database for station/object K7TSD. If no packets are shown the sender has not sent any weather packets the latest 10 day(s).
| Time | Temp. | Humidity | Pressure | Rain* | Wind** | Luminosity | Snow |
|---|---|---|---|---|---|---|---|
| 1777559002 | 6.67° C | 50% | 1019.3 hPa | 0 mm | - | 216 W/m² | - |
| 1777558698 | 6.11° C | 50% | 1019.3 hPa | 0 mm | - | 203 W/m² | - |
| 1777558394 | 6.67° C | 52% | 1019.3 hPa | 0 mm | - | 149 W/m² | - |
| 1777558090 | 6.11° C | 52% | 1019.3 hPa | 0 mm | - | 184 W/m² | - |
| 1777557787 | 5.56° C | 56% | 1019 hPa | 0 mm | - | 161 W/m² | - |
| 1777557483 | 5.56° C | 55% | 1019.3 hPa | 0 mm | - | 110 W/m² | - |
| 1777557180 | 4.44° C | 60% | 1019.4 hPa | 0 mm | - | 164 W/m² | - |
| 1777556875 | 4.44° C | 59% | 1019.4 hPa | 0 mm | - | 83 W/m² | - |
| 1777556572 | 4.44° C | 58% | 1019.2 hPa | 0 mm | - | 81 W/m² | - |
| 1777556271 | 4.44° C | 60% | 1019.3 hPa | 0 mm | - | 79 W/m² | - |
| 1777555968 | 3.89° C | 59% | 1019.3 hPa | 0 mm | - | 88 W/m² | - |
| 1777555663 | 3.89° C | 61% | 1019.2 hPa | 0 mm | - | 74 W/m² | - |
| 1777555360 | 3.33° C | 62% | 1019.6 hPa | 0 mm | - | 64 W/m² | - |
| 1777555056 | 3.33° C | 61% | 1019.2 hPa | 0 mm | - | 62 W/m² | - |
| 1777554753 | 3.33° C | 61% | 1019.2 hPa | 0 mm | - | 62 W/m² | - |
| 1777554451 | 3.33° C | 62% | 1019.3 hPa | 0 mm | - | 47 W/m² | - |
| 1777554147 | 3.33° C | 62% | 1019.3 hPa | 0 mm | - | 43 W/m² | - |
| 1777553844 | 3.33° C | 62% | 1019.3 hPa | 0 mm | - | 43 W/m² | - |
| 1777553541 | 2.78° C | 62% | 1018.9 hPa | 0 mm | - | 39 W/m² | - |
| 1777553237 | 2.78° C | 63% | 1019.2 hPa | 0 mm | - | 33 W/m² | - |
| 1777552933 | 2.78° C | 64% | 1019.2 hPa | 0 mm | - | 29 W/m² | - |
| 1777552633 | 2.22° C | 64% | 1019.2 hPa | 0 mm | - | 29 W/m² | - |
| 1777552330 | 1.67° C | 65% | 1019.2 hPa | 0 mm | - | 25 W/m² | - |
| 1777552026 | 1.67° C | 66% | 1019 hPa | 0 mm | - | 19 W/m² | - |
| 1777551724 | 1.67° C | 65% | 1019.2 hPa | 0 mm | - | 14 W/m² | - |
* Rain latest hour (hover to see other rain measurements)
** Current wind speed in m/s (hover to see current wind gust speed)